sensor_id;sensor_type;location;lat;lon;timestamp;pressure;altitude;pressure_sealevel;temperature;humidity
70437;BME280;57877;39.750;-104.894;2023-05-19T00:00:19;83900.82;;;12.09;57.07
70437;BME280;57877;39.750;-104.894;2023-05-19T00:02:44;83901.36;;;12.55;56.36
70437;BME280;57877;39.750;-104.894;2023-05-19T00:05:10;83909.19;;;12.19;56.42
70437;BME280;57877;39.750;-104.894;2023-05-19T00:07:37;83919.50;;;11.26;58.95
70437;BME280;57877;39.750;-104.894;2023-05-19T00:09:59;83926.92;;;11.83;57.04
70437;BME280;57877;39.750;-104.894;2023-05-19T00:12:24;83929.37;;;11.26;57.54
70437;BME280;57877;39.750;-104.894;2023-05-19T00:14:50;83926.99;;;11.95;54.98
70437;BME280;57877;39.750;-104.894;2023-05-19T00:17:15;83937.04;;;12.12;53.38
70437;BME280;57877;39.750;-104.894;2023-05-19T00:19:40;83943.56;;;11.42;55.28
70437;BME280;57877;39.750;-104.894;2023-05-19T00:22:05;83953.32;;;10.71;56.41
70437;BME280;57877;39.750;-104.894;2023-05-19T00:24:30;83961.19;;;10.31;57.96
70437;BME280;57877;39.750;-104.894;2023-05-19T00:26:55;83961.76;;;10.69;57.79
70437;BME280;57877;39.750;-104.894;2023-05-19T00:29:20;83961.10;;;10.60;57.22
70437;BME280;57877;39.750;-104.894;2023-05-19T00:31:45;83970.92;;;10.76;56.30
70437;BME280;57877;39.750;-104.894;2023-05-19T00:34:11;83973.46;;;11.26;55.66
70437;BME280;57877;39.750;-104.894;2023-05-19T00:36:37;83976.25;;;11.24;55.56
70437;BME280;57877;39.750;-104.894;2023-05-19T00:39:03;83979.73;;;10.87;55.08
70437;BME280;57877;39.750;-104.894;2023-05-19T00:41:29;83992.97;;;10.73;56.64
70437;BME280;57877;39.750;-104.894;2023-05-19T00:43:54;83991.85;;;10.62;56.34
70437;BME280;57877;39.750;-104.894;2023-05-19T00:46:19;83995.12;;;10.53;57.09
70437;BME280;57877;39.750;-104.894;2023-05-19T00:48:45;83993.46;;;10.92;55.05
70437;BME280;57877;39.750;-104.894;2023-05-19T00:51:11;84000.12;;;10.34;56.24
70437;BME280;57877;39.750;-104.894;2023-05-19T00:53:36;84006.69;;;10.62;56.20
70437;BME280;57877;39.750;-104.894;2023-05-19T00:56:02;84004.73;;;11.52;54.71
70437;BME280;57877;39.750;-104.894;2023-05-19T00:58:27;84006.69;;;11.55;53.69
70437;BME280;57877;39.750;-104.894;2023-05-19T01:00:52;84008.50;;;11.34;54.54
70437;BME280;57877;39.750;-104.894;2023-05-19T01:03:18;84016.58;;;11.26;55.06
70437;BME280;57877;39.750;-104.894;2023-05-19T01:05:43;84022.35;;;11.32;54.75
70437;BME280;57877;39.750;-104.894;2023-05-19T01:08:10;84027.91;;;10.63;56.27
70437;BME280;57877;39.750;-104.894;2023-05-19T01:10:36;84030.15;;;11.13;55.38
70437;BME280;57877;39.750;-104.894;2023-05-19T01:13:01;84036.91;;;11.17;54.00
70437;BME280;57877;39.750;-104.894;2023-05-19T01:15:26;84049.79;;;10.94;54.34
70437;BME280;57877;39.750;-104.894;2023-05-19T01:17:58;84050.00;;;11.34;53.56
70437;BME280;57877;39.750;-104.894;2023-05-19T01:20:21;84055.23;;;12.07;52.20
70437;BME280;57877;39.750;-104.894;2023-05-19T01:27:46;84065.16;;;11.80;52.09
70437;BME280;57877;39.750;-104.894;2023-05-19T01:32:25;84072.29;;;11.69;52.56
70437;BME280;57877;39.750;-104.894;2023-05-19T01:34:50;84076.39;;;11.93;51.19
70437;BME280;57877;39.750;-104.894;2023-05-19T01:37:15;84080.31;;;12.26;50.93
70437;BME280;57877;39.750;-104.894;2023-05-19T01:39:40;84084.14;;;11.85;51.14
70437;BME280;57877;39.750;-104.894;2023-05-19T01:42:05;84090.46;;;12.56;50.70
70437;BME280;57877;39.750;-104.894;2023-05-19T01:44:31;84095.34;;;11.20;52.22
70437;BME280;57877;39.750;-104.894;2023-05-19T01:46:57;84094.55;;;11.59;52.30
70437;BME280;57877;39.750;-104.894;2023-05-19T01:49:23;84097.94;;;11.13;52.84
70437;BME280;57877;39.750;-104.894;2023-05-19T01:51:49;84099.44;;;11.24;52.57
70437;BME280;57877;39.750;-104.894;2023-05-19T01:54:15;84106.42;;;10.96;53.55
70437;BME280;57877;39.750;-104.894;2023-05-19T01:56:48;84106.10;;;10.81;53.76
70437;BME280;57877;39.750;-104.894;2023-05-19T01:59:15;84107.20;;;11.47;52.95
70437;BME280;57877;39.750;-104.894;2023-05-19T02:01:35;84112.74;;;11.49;52.38
70437;BME280;57877;39.750;-104.894;2023-05-19T02:04:05;84116.30;;;11.41;51.78
70437;BME280;57877;39.750;-104.894;2023-05-19T02:06:31;84120.19;;;12.21;50.07
70437;BME280;57877;39.750;-104.894;2023-05-19T02:08:54;84119.86;;;11.50;52.06
70437;BME280;57877;39.750;-104.894;2023-05-19T02:11:16;84120.48;;;11.47;52.56
70437;BME280;57877;39.750;-104.894;2023-05-19T02:13:43;84122.02;;;11.13;52.41
70437;BME280;57877;39.750;-104.894;2023-05-19T02:16:04;84123.60;;;11.75;51.96
70437;BME280;57877;39.750;-104.894;2023-05-19T02:18:27;84127.89;;;10.99;54.17
70437;BME280;57877;39.750;-104.894;2023-05-19T02:20:52;84130.52;;;11.08;53.75
70437;BME280;57877;39.750;-104.894;2023-05-19T02:23:17;84134.88;;;12.22;53.61
70437;BME280;57877;39.750;-104.894;2023-05-19T02:25:43;84140.81;;;11.86;55.98
70437;BME280;57877;39.750;-104.894;2023-05-19T02:28:08;84146.08;;;12.06;54.96
70437;BME280;57877;39.750;-104.894;2023-05-19T02:30:34;84149.62;;;11.61;54.54
70437;BME280;57877;39.750;-104.894;2023-05-19T02:33:00;84156.43;;;11.46;56.91
70437;BME280;57877;39.750;-104.894;2023-05-19T02:35:26;84158.93;;;11.45;56.10
70437;BME280;57877;39.750;-104.894;2023-05-19T02:37:52;84164.98;;;11.78;58.50
70437;BME280;57877;39.750;-104.894;2023-05-19T02:40:17;84173.23;;;11.48;57.25
70437;BME280;57877;39.750;-104.894;2023-05-19T02:42:43;84177.41;;;11.25;57.04
70437;BME280;57877;39.750;-104.894;2023-05-19T02:45:10;84181.54;;;12.13;57.06
70437;BME280;57877;39.750;-104.894;2023-05-19T02:47:35;84186.65;;;12.62;54.42
70437;BME280;57877;39.750;-104.894;2023-05-19T02:50:00;84192.40;;;12.78;56.67
70437;BME280;57877;39.750;-104.894;2023-05-19T02:52:25;84198.11;;;12.00;56.57
70437;BME280;57877;39.750;-104.894;2023-05-19T02:54:51;84199.87;;;11.97;57.27
70437;BME280;57877;39.750;-104.894;2023-05-19T02:57:16;84204.08;;;11.82;56.47
70437;BME280;57877;39.750;-104.894;2023-05-19T02:59:42;84209.93;;;12.15;56.95
70437;BME280;57877;39.750;-104.894;2023-05-19T03:02:08;84213.21;;;12.15;56.93
70437;BME280;57877;39.750;-104.894;2023-05-19T03:04:34;84219.17;;;11.56;56.24
70437;BME280;57877;39.750;-104.894;2023-05-19T03:06:59;84223.63;;;11.58;57.51
70437;BME280;57877;39.750;-104.894;2023-05-19T03:09:24;84227.51;;;11.31;58.22
70437;BME280;57877;39.750;-104.894;2023-05-19T03:11:50;84232.20;;;11.18;58.05
70437;BME280;57877;39.750;-104.894;2023-05-19T03:14:15;84236.29;;;11.31;59.12
70437;BME280;57877;39.750;-104.894;2023-05-19T03:16:40;84238.67;;;10.82;59.66
70437;BME280;57877;39.750;-104.894;2023-05-19T03:19:06;84241.46;;;11.47;58.61
70437;BME280;57877;39.750;-104.894;2023-05-19T03:21:31;84241.66;;;11.68;59.17
70437;BME280;57877;39.750;-104.894;2023-05-19T03:23:56;84243.72;;;11.87;56.70
70437;BME280;57877;39.750;-104.894;2023-05-19T03:26:21;84240.60;;;11.59;58.13
70437;BME280;57877;39.750;-104.894;2023-05-19T03:28:46;84243.09;;;12.00;57.43
70437;BME280;57877;39.750;-104.894;2023-05-19T03:31:11;84246.96;;;11.79;57.83
70437;BME280;57877;39.750;-104.894;2023-05-19T03:33:36;84249.46;;;11.73;56.70
70437;BME280;57877;39.750;-104.894;2023-05-19T03:36:01;84251.64;;;11.86;55.75
70437;BME280;57877;39.750;-104.894;2023-05-19T03:38:26;84253.32;;;11.68;56.84
70437;BME280;57877;39.750;-104.894;2023-05-19T03:40:52;84258.86;;;11.41;55.92
70437;BME280;57877;39.750;-104.894;2023-05-19T03:43:17;84260.24;;;11.55;55.23
70437;BME280;57877;39.750;-104.894;2023-05-19T03:45:42;84264.54;;;11.66;55.76
70437;BME280;57877;39.750;-104.894;2023-05-19T03:48:08;84268.38;;;12.16;55.14
70437;BME280;57877;39.750;-104.894;2023-05-19T03:50:33;84270.63;;;12.39;55.44
70437;BME280;57877;39.750;-104.894;2023-05-19T03:52:58;84271.43;;;12.38;55.26
70437;BME280;57877;39.750;-104.894;2023-05-19T03:55:24;84270.17;;;12.48;54.49
70437;BME280;57877;39.750;-104.894;2023-05-19T03:57:49;84270.95;;;12.45;53.76
70437;BME280;57877;39.750;-104.894;2023-05-19T04:00:16;84272.66;;;13.05;51.85
70437;BME280;57877;39.750;-104.894;2023-05-19T04:02:40;84270.42;;;13.56;51.66
70437;BME280;57877;39.750;-104.894;2023-05-19T04:05:08;84269.41;;;13.37;50.61
70437;BME280;57877;39.750;-104.894;2023-05-19T04:07:32;84269.98;;;13.76;49.86
70437;BME280;57877;39.750;-104.894;2023-05-19T04:09:58;84273.84;;;13.84;51.29
70437;BME280;57877;39.750;-104.894;2023-05-19T04:12:23;84275.08;;;13.17;49.73
70437;BME280;57877;39.750;-104.894;2023-05-19T04:14:49;84275.38;;;13.38;52.51
70437;BME280;57877;39.750;-104.894;2023-05-19T04:17:14;84276.13;;;12.48;52.30
70437;BME280;57877;39.750;-104.894;2023-05-19T04:19:39;84277.16;;;13.07;50.90
70437;BME280;57877;39.750;-104.894;2023-05-19T04:22:04;84280.05;;;13.09;51.19
70437;BME280;57877;39.750;-104.894;2023-05-19T04:24:29;84278.60;;;13.13;50.83
70437;BME280;57877;39.750;-104.894;2023-05-19T04:26:54;84279.76;;;13.41;50.57
70437;BME280;57877;39.750;-104.894;2023-05-19T04:29:19;84281.21;;;13.25;50.29
70437;BME280;57877;39.750;-104.894;2023-05-19T04:31:44;84280.78;;;13.53;50.64
70437;BME280;57877;39.750;-104.894;2023-05-19T04:34:10;84282.46;;;13.87;49.45
70437;BME280;57877;39.750;-104.894;2023-05-19T04:36:35;84280.45;;;13.72;50.33
70437;BME280;57877;39.750;-104.894;2023-05-19T04:39:00;84280.55;;;13.91;49.43
70437;BME280;57877;39.750;-104.894;2023-05-19T04:41:25;84279.53;;;13.68;49.46
70437;BME280;57877;39.750;-104.894;2023-05-19T04:43:51;84277.92;;;13.66;48.47
70437;BME280;57877;39.750;-104.894;2023-05-19T04:46:17;84277.60;;;13.22;48.91
70437;BME280;57877;39.750;-104.894;2023-05-19T04:48:43;84278.74;;;13.22;49.59
70437;BME280;57877;39.750;-104.894;2023-05-19T04:51:08;84277.84;;;13.37;49.16
70437;BME280;57877;39.750;-104.894;2023-05-19T04:53:34;84278.42;;;13.75;49.36
70437;BME280;57877;39.750;-104.894;2023-05-19T04:56:00;84277.35;;;13.45;49.12
70437;BME280;57877;39.750;-104.894;2023-05-19T04:58:25;84274.85;;;13.51;48.96
70437;BME280;57877;39.750;-104.894;2023-05-19T05:00:50;84274.47;;;13.66;48.32
70437;BME280;57877;39.750;-104.894;2023-05-19T05:03:15;84274.89;;;13.55;47.68
70437;BME280;57877;39.750;-104.894;2023-05-19T05:05:40;84275.31;;;13.67;47.71
70437;BME280;57877;39.750;-104.894;2023-05-19T05:08:05;84273.12;;;13.65;47.99
70437;BME280;57877;39.750;-104.894;2023-05-19T05:10:30;84274.43;;;13.93;48.22
70437;BME280;57877;39.750;-104.894;2023-05-19T05:12:55;84278.81;;;13.57;48.43
70437;BME280;57877;39.750;-104.894;2023-05-19T05:15:21;84284.51;;;13.55;48.79
70437;BME280;57877;39.750;-104.894;2023-05-19T05:17:45;84285.02;;;13.73;48.19
70437;BME280;57877;39.750;-104.894;2023-05-19T05:20:12;84286.80;;;13.85;48.97
70437;BME280;57877;39.750;-104.894;2023-05-19T05:22:36;84287.15;;;13.88;48.55
70437;BME280;57877;39.750;-104.894;2023-05-19T05:25:01;84286.27;;;13.89;48.48
70437;BME280;57877;39.750;-104.894;2023-05-19T05:27:25;84287.72;;;14.19;48.65
70437;BME280;57877;39.750;-104.894;2023-05-19T05:29:51;84287.29;;;14.07;48.66
70437;BME280;57877;39.750;-104.894;2023-05-19T05:32:16;84285.16;;;13.87;49.16
70437;BME280;57877;39.750;-104.894;2023-05-19T05:34:42;84283.41;;;14.14;48.85
70437;BME280;57877;39.750;-104.894;2023-05-19T05:37:06;84283.36;;;13.91;48.94
70437;BME280;57877;39.750;-104.894;2023-05-19T05:39:31;84282.97;;;14.02;48.92
70437;BME280;57877;39.750;-104.894;2023-05-19T05:41:56;84284.11;;;13.98;48.99
70437;BME280;57877;39.750;-104.894;2023-05-19T05:44:21;84284.39;;;13.79;48.79
70437;BME280;57877;39.750;-104.894;2023-05-19T05:46:48;84284.25;;;13.78;49.13
70437;BME280;57877;39.750;-104.894;2023-05-19T05:49:13;84285.02;;;13.44;49.24
70437;BME280;57877;39.750;-104.894;2023-05-19T05:51:38;84285.52;;;13.45;49.15
70437;BME280;57877;39.750;-104.894;2023-05-19T05:54:06;84284.25;;;13.29;49.23
70437;BME280;57877;39.750;-104.894;2023-05-19T05:56:30;84283.71;;;13.31;49.52
70437;BME280;57877;39.750;-104.894;2023-05-19T05:58:55;84286.09;;;13.64;49.43
70437;BME280;57877;39.750;-104.894;2023-05-19T06:01:22;84286.31;;;13.47;49.54
70437;BME280;57877;39.750;-104.894;2023-05-19T06:03:46;84288.74;;;13.76;49.51
70437;BME280;57877;39.750;-104.894;2023-05-19T06:06:13;84287.14;;;13.53;49.47
70437;BME280;57877;39.750;-104.894;2023-05-19T06:08:37;84286.85;;;13.57;49.52
70437;BME280;57877;39.750;-104.894;2023-05-19T06:11:03;84287.63;;;13.60;49.78
70437;BME280;57877;39.750;-104.894;2023-05-19T06:13:28;84284.98;;;13.40;49.55
70437;BME280;57877;39.750;-104.894;2023-05-19T06:15:54;84283.02;;;13.64;49.52
70437;BME280;57877;39.750;-104.894;2023-05-19T06:18:20;84281.09;;;13.37;49.65
70437;BME280;57877;39.750;-104.894;2023-05-19T06:20:46;84283.07;;;13.44;49.71
70437;BME280;57877;39.750;-104.894;2023-05-19T06:23:12;84282.50;;;13.56;49.51
70437;BME280;57877;39.750;-104.894;2023-05-19T06:25:38;84280.83;;;13.81;49.56
70437;BME280;57877;39.750;-104.894;2023-05-19T06:28:04;84277.50;;;13.69;49.50
70437;BME280;57877;39.750;-104.894;2023-05-19T06:30:30;84275.88;;;13.78;49.38
70437;BME280;57877;39.750;-104.894;2023-05-19T06:32:56;84279.28;;;13.51;49.52
70437;BME280;57877;39.750;-104.894;2023-05-19T06:35:21;84280.80;;;13.57;49.32
70437;BME280;57877;39.750;-104.894;2023-05-19T06:37:47;84282.14;;;13.69;48.94
70437;BME280;57877;39.750;-104.894;2023-05-19T06:40:13;84280.16;;;13.70;49.07
70437;BME280;57877;39.750;-104.894;2023-05-19T06:42:39;84282.37;;;13.60;49.55
70437;BME280;57877;39.750;-104.894;2023-05-19T06:45:06;84282.52;;;14.02;49.61
70437;BME280;57877;39.750;-104.894;2023-05-19T06:47:31;84281.91;;;13.75;49.32
70437;BME280;57877;39.750;-104.894;2023-05-19T06:49:57;84284.94;;;14.04;49.02
70437;BME280;57877;39.750;-104.894;2023-05-19T06:52:23;84286.96;;;13.98;49.07
70437;BME280;57877;39.750;-104.894;2023-05-19T06:54:49;84289.43;;;14.05;49.11
70437;BME280;57877;39.750;-104.894;2023-05-19T06:57:16;84291.50;;;14.10;49.06
70437;BME280;57877;39.750;-104.894;2023-05-19T06:59:41;84293.42;;;14.20;48.93
70437;BME280;57877;39.750;-104.894;2023-05-19T07:02:08;84294.27;;;14.01;49.02
70437;BME280;57877;39.750;-104.894;2023-05-19T07:04:33;84294.08;;;14.03;48.91
70437;BME280;57877;39.750;-104.894;2023-05-19T07:06:59;84292.03;;;14.01;48.76
70437;BME280;57877;39.750;-104.894;2023-05-19T07:09:25;84289.89;;;14.03;48.44
70437;BME280;57877;39.750;-104.894;2023-05-19T07:11:51;84291.30;;;13.57;50.03
70437;BME280;57877;39.750;-104.894;2023-05-19T07:14:17;84295.10;;;13.86;49.12
70437;BME280;57877;39.750;-104.894;2023-05-19T07:16:43;84296.62;;;13.83;48.62
70437;BME280;57877;39.750;-104.894;2023-05-19T07:19:08;84292.27;;;13.92;48.70
70437;BME280;57877;39.750;-104.894;2023-05-19T07:21:34;84290.57;;;13.89;48.81
70437;BME280;57877;39.750;-104.894;2023-05-19T07:24:00;84287.14;;;13.91;48.87
70437;BME280;57877;39.750;-104.894;2023-05-19T07:26:27;84286.62;;;14.10;48.75
70437;BME280;57877;39.750;-104.894;2023-05-19T07:28:52;84288.79;;;14.03;48.93
70437;BME280;57877;39.750;-104.894;2023-05-19T07:31:18;84287.26;;;14.00;49.02
70437;BME280;57877;39.750;-104.894;2023-05-19T07:33:44;84290.50;;;14.12;48.82
70437;BME280;57877;39.750;-104.894;2023-05-19T07:36:10;84295.37;;;14.20;48.64
70437;BME280;57877;39.750;-104.894;2023-05-19T07:38:36;84293.34;;;14.20;48.27
70437;BME280;57877;39.750;-104.894;2023-05-19T07:41:03;84297.52;;;14.29;48.31
70437;BME280;57877;39.750;-104.894;2023-05-19T07:43:28;84297.20;;;13.84;48.37
70437;BME280;57877;39.750;-104.894;2023-05-19T07:45:54;84298.63;;;14.07;48.75
70437;BME280;57877;39.750;-104.894;2023-05-19T07:48:22;84297.35;;;13.92;48.92
70437;BME280;57877;39.750;-104.894;2023-05-19T07:50:46;84295.34;;;14.03;49.00
70437;BME280;57877;39.750;-104.894;2023-05-19T07:53:12;84293.21;;;13.88;48.96
70437;BME280;57877;39.750;-104.894;2023-05-19T07:55:37;84289.64;;;14.11;48.94
70437;BME280;57877;39.750;-104.894;2023-05-19T07:58:03;84288.77;;;13.96;48.92
70437;BME280;57877;39.750;-104.894;2023-05-19T08:00:28;84286.04;;;14.17;49.10
70437;BME280;57877;39.750;-104.894;2023-05-19T08:02:54;84282.28;;;13.71;49.55
70437;BME280;57877;39.750;-104.894;2023-05-19T08:05:20;84282.07;;;12.73;50.69
70437;BME280;57877;39.750;-104.894;2023-05-19T08:07:46;84290.22;;;13.59;49.29
70437;BME280;57877;39.750;-104.894;2023-05-19T08:10:12;84292.47;;;13.79;48.79
70437;BME280;57877;39.750;-104.894;2023-05-19T08:12:38;84294.63;;;13.61;48.50
70437;BME280;57877;39.750;-104.894;2023-05-19T08:15:05;84294.38;;;13.89;48.83
70437;BME280;57877;39.750;-104.894;2023-05-19T08:17:30;84290.67;;;13.51;49.43
70437;BME280;57877;39.750;-104.894;2023-05-19T08:19:57;84289.08;;;13.43;49.19
70437;BME280;57877;39.750;-104.894;2023-05-19T08:22:21;84288.75;;;12.48;50.75
70437;BME280;57877;39.750;-104.894;2023-05-19T08:24:47;84290.11;;;12.44;50.58
70437;BME280;57877;39.750;-104.894;2023-05-19T08:27:12;84291.60;;;12.97;49.62
70437;BME280;57877;39.750;-104.894;2023-05-19T08:29:39;84298.32;;;11.69;51.29
70437;BME280;57877;39.750;-104.894;2023-05-19T08:32:05;84298.33;;;11.52;51.86
70437;BME280;57877;39.750;-104.894;2023-05-19T08:34:31;84296.83;;;11.20;53.92
70437;BME280;57877;39.750;-104.894;2023-05-19T08:36:56;84296.79;;;11.30;53.52
70437;BME280;57877;39.750;-104.894;2023-05-19T08:39:21;84295.35;;;11.15;52.71
70437;BME280;57877;39.750;-104.894;2023-05-19T08:41:45;84292.41;;;11.24;53.41
70437;BME280;57877;39.750;-104.894;2023-05-19T08:44:11;84293.25;;;11.21;53.55
70437;BME280;57877;39.750;-104.894;2023-05-19T08:46:37;84294.05;;;10.54;55.16
70437;BME280;57877;39.750;-104.894;2023-05-19T08:49:07;84290.59;;;11.16;55.01
70437;BME280;57877;39.750;-104.894;2023-05-19T08:51:34;84292.17;;;10.86;55.35
70437;BME280;57877;39.750;-104.894;2023-05-19T08:53:55;84290.51;;;11.62;53.86
70437;BME280;57877;39.750;-104.894;2023-05-19T08:56:21;84294.32;;;10.90;55.38
70437;BME280;57877;39.750;-104.894;2023-05-19T08:58:42;84296.06;;;11.64;53.41
70437;BME280;57877;39.750;-104.894;2023-05-19T09:01:08;84295.66;;;9.48;57.90
70437;BME280;57877;39.750;-104.894;2023-05-19T09:03:34;84299.19;;;11.23;53.93
70437;BME280;57877;39.750;-104.894;2023-05-19T09:06:00;84295.75;;;11.17;53.66
70437;BME280;57877;39.750;-104.894;2023-05-19T09:08:25;84295.29;;;11.43;53.44
70437;BME280;57877;39.750;-104.894;2023-05-19T09:10:51;84298.40;;;12.07;52.64
70437;BME280;57877;39.750;-104.894;2023-05-19T09:13:16;84301.30;;;10.80;54.38
70437;BME280;57877;39.750;-104.894;2023-05-19T09:15:44;84297.16;;;11.28;53.96
70437;BME280;57877;39.750;-104.894;2023-05-19T09:18:09;84296.46;;;11.60;52.96
70437;BME280;57877;39.750;-104.894;2023-05-19T09:20:32;84298.33;;;10.17;55.64
70437;BME280;57877;39.750;-104.894;2023-05-19T09:22:59;84301.66;;;10.19;55.52
70437;BME280;57877;39.750;-104.894;2023-05-19T09:25:22;84300.19;;;11.23;53.96
70437;BME280;57877;39.750;-104.894;2023-05-19T09:27:48;84298.05;;;10.78;54.74
70437;BME280;57877;39.750;-104.894;2023-05-19T09:30:16;84298.64;;;10.75;54.11
70437;BME280;57877;39.750;-104.894;2023-05-19T09:32:40;84299.04;;;10.32;55.51
70437;BME280;57877;39.750;-104.894;2023-05-19T09:35:06;84305.08;;;10.88;54.90
70437;BME280;57877;39.750;-104.894;2023-05-19T09:37:30;84310.32;;;11.23;53.41
70437;BME280;57877;39.750;-104.894;2023-05-19T09:39:56;84311.22;;;11.56;51.62
70437;BME280;57877;39.750;-104.894;2023-05-19T09:42:25;84311.88;;;11.64;51.76
70437;BME280;57877;39.750;-104.894;2023-05-19T09:44:48;84310.26;;;11.51;51.50
70437;BME280;57877;39.750;-104.894;2023-05-19T09:47:14;84312.83;;;11.20;52.45
70437;BME280;57877;39.750;-104.894;2023-05-19T09:49:45;84310.09;;;10.78;52.71
70437;BME280;57877;39.750;-104.894;2023-05-19T09:52:07;84309.36;;;11.98;51.01
70437;BME280;57877;39.750;-104.894;2023-05-19T09:54:33;84305.82;;;12.46;50.13
70437;BME280;57877;39.750;-104.894;2023-05-19T09:56:58;84305.95;;;11.50;51.23
70437;BME280;57877;39.750;-104.894;2023-05-19T09:59:24;84307.81;;;12.47;49.59
70437;BME280;57877;39.750;-104.894;2023-05-19T10:01:48;84307.23;;;12.36;50.04
70437;BME280;57877;39.750;-104.894;2023-05-19T10:04:15;84307.28;;;11.89;49.87
70437;BME280;57877;39.750;-104.894;2023-05-19T10:06:41;84312.14;;;11.35;50.08
70437;BME280;57877;39.750;-104.894;2023-05-19T10:09:06;84310.84;;;11.85;49.85
70437;BME280;57877;39.750;-104.894;2023-05-19T10:11:33;84314.74;;;12.10;49.17
70437;BME280;57877;39.750;-104.894;2023-05-19T10:13:57;84313.70;;;12.59;48.32
70437;BME280;57877;39.750;-104.894;2023-05-19T10:16:24;84313.23;;;12.48;48.09
70437;BME280;57877;39.750;-104.894;2023-05-19T10:18:49;84313.34;;;12.89;47.17
70437;BME280;57877;39.750;-104.894;2023-05-19T10:21:13;84318.40;;;11.88;48.77
70437;BME280;57877;39.750;-104.894;2023-05-19T10:23:38;84319.21;;;11.65;49.29
70437;BME280;57877;39.750;-104.894;2023-05-19T10:26:03;84320.55;;;12.19;48.35
70437;BME280;57877;39.750;-104.894;2023-05-19T10:28:33;84317.14;;;11.53;49.06
70437;BME280;57877;39.750;-104.894;2023-05-19T10:30:57;84318.81;;;11.67;48.43
70437;BME280;57877;39.750;-104.894;2023-05-19T10:33:20;84321.00;;;11.25;49.81
70437;BME280;57877;39.750;-104.894;2023-05-19T10:35:56;84321.25;;;11.60;48.85
70437;BME280;57877;39.750;-104.894;2023-05-19T10:38:19;84321.70;;;10.95;49.98
70437;BME280;57877;39.750;-104.894;2023-05-19T10:40:40;84321.62;;;11.47;49.06
70437;BME280;57877;39.750;-104.894;2023-05-19T10:43:12;84320.45;;;11.36;49.36
70437;BME280;57877;39.750;-104.894;2023-05-19T10:45:29;84322.31;;;11.36;48.98
70437;BME280;57877;39.750;-104.894;2023-05-19T10:47:50;84327.23;;;11.92;48.05
70437;BME280;57877;39.750;-104.894;2023-05-19T10:50:15;84329.65;;;12.55;47.01
70437;BME280;57877;39.750;-104.894;2023-05-19T10:52:40;84325.41;;;12.93;46.24
70437;BME280;57877;39.750;-104.894;2023-05-19T10:55:07;84328.54;;;12.03;46.65
70437;BME280;57877;39.750;-104.894;2023-05-19T10:57:30;84327.41;;;12.31;46.15
70437;BME280;57877;39.750;-104.894;2023-05-19T10:59:55;84327.06;;;12.67;45.46
70437;BME280;57877;39.750;-104.894;2023-05-19T11:04:46;84326.85;;;13.09;44.81
70437;BME280;57877;39.750;-104.894;2023-05-19T11:07:13;84328.74;;;12.58;45.22
70437;BME280;57877;39.750;-104.894;2023-05-19T11:09:40;84330.54;;;13.28;44.05
70437;BME280;57877;39.750;-104.894;2023-05-19T11:12:02;84330.49;;;13.23;44.14
70437;BME280;57877;39.750;-104.894;2023-05-19T11:14:26;84332.12;;;13.28;43.85
70437;BME280;57877;39.750;-104.894;2023-05-19T11:16:55;84330.64;;;13.48;43.45
70437;BME280;57877;39.750;-104.894;2023-05-19T11:19:18;84331.62;;;13.49;43.84
70437;BME280;57877;39.750;-104.894;2023-05-19T11:21:42;84329.92;;;13.49;43.49
70437;BME280;57877;39.750;-104.894;2023-05-19T11:24:07;84331.52;;;13.73;44.30
70437;BME280;57877;39.750;-104.894;2023-05-19T11:26:39;84331.34;;;13.16;44.75
70437;BME280;57877;39.750;-104.894;2023-05-19T11:28:57;84329.17;;;13.63;44.82
70437;BME280;57877;39.750;-104.894;2023-05-19T11:31:22;84327.51;;;13.44;44.87
70437;BME280;57877;39.750;-104.894;2023-05-19T11:33:47;84330.07;;;13.26;44.95
70437;BME280;57877;39.750;-104.894;2023-05-19T11:36:12;84339.06;;;13.68;45.12
70437;BME280;57877;39.750;-104.894;2023-05-19T11:38:37;84341.50;;;13.46;45.04
70437;BME280;57877;39.750;-104.894;2023-05-19T11:41:03;84344.36;;;13.81;44.82
70437;BME280;57877;39.750;-104.894;2023-05-19T11:43:27;84349.81;;;13.82;44.90
70437;BME280;57877;39.750;-104.894;2023-05-19T11:45:53;84354.58;;;13.61;44.59
70437;BME280;57877;39.750;-104.894;2023-05-19T11:48:20;84360.29;;;13.86;44.45
70437;BME280;57877;39.750;-104.894;2023-05-19T11:50:42;84363.06;;;13.49;44.42
70437;BME280;57877;39.750;-104.894;2023-05-19T11:53:07;84366.67;;;13.90;44.23
70437;BME280;57877;39.750;-104.894;2023-05-19T11:55:33;84367.95;;;13.54;44.25
70437;BME280;57877;39.750;-104.894;2023-05-19T11:57:58;84371.65;;;13.50;44.16
70437;BME280;57877;39.750;-104.894;2023-05-19T12:00:23;84374.49;;;13.46;44.06
70437;BME280;57877;39.750;-104.894;2023-05-19T12:02:47;84377.20;;;13.53;44.41
70437;BME280;57877;39.750;-104.894;2023-05-19T12:05:18;84382.64;;;13.42;45.14
70437;BME280;57877;39.750;-104.894;2023-05-19T12:07:38;84383.53;;;13.79;45.11
70437;BME280;57877;39.750;-104.894;2023-05-19T12:10:03;84387.48;;;13.84;45.02
70437;BME280;57877;39.750;-104.894;2023-05-19T12:12:29;84390.65;;;13.57;45.30
70437;BME280;57877;39.750;-104.894;2023-05-19T12:14:53;84395.42;;;13.81;44.89
70437;BME280;57877;39.750;-104.894;2023-05-19T12:17:19;84397.61;;;13.47;45.08
70437;BME280;57877;39.750;-104.894;2023-05-19T12:19:44;84396.78;;;13.75;44.94
70437;BME280;57877;39.750;-104.894;2023-05-19T12:22:08;84396.75;;;13.66;44.63
70437;BME280;57877;39.750;-104.894;2023-05-19T12:24:33;84401.20;;;13.67;44.14
70437;BME280;57877;39.750;-104.894;2023-05-19T12:27:04;84404.67;;;13.61;45.61
70437;BME280;57877;39.750;-104.894;2023-05-19T12:29:27;84408.20;;;13.54;45.35